sensor_id;sensor_type;location;lat;lon;timestamp;temperature;humidity
49731;DHT22;35622;52.008;5.426;2023-04-01T00:00:20;14.80;82.40
49731;DHT22;35622;52.008;5.426;2023-04-01T00:02:46;14.90;82.30
49731;DHT22;35622;52.008;5.426;2023-04-01T00:05:12;14.80;82.20
49731;DHT22;35622;52.008;5.426;2023-04-01T00:07:39;14.90;82.10
49731;DHT22;35622;52.008;5.426;2023-04-01T00:10:10;14.80;82.00
49731;DHT22;35622;52.008;5.426;2023-04-01T00:12:37;14.80;83.00
49731;DHT22;35622;52.008;5.426;2023-04-01T00:15:04;14.80;82.20
49731;DHT22;35622;52.008;5.426;2023-04-01T00:17:30;14.80;82.20
49731;DHT22;35622;52.008;5.426;2023-04-01T00:19:57;14.80;82.30
49731;DHT22;35622;52.008;5.426;2023-04-01T00:22:24;14.90;82.30
49731;DHT22;35622;52.008;5.426;2023-04-01T00:24:50;14.90;82.00
49731;DHT22;35622;52.008;5.426;2023-04-01T00:27:15;14.80;82.10
49731;DHT22;35622;52.008;5.426;2023-04-01T00:29:42;14.80;81.90
49731;DHT22;35622;52.008;5.426;2023-04-01T00:32:08;14.80;82.20
49731;DHT22;35622;52.008;5.426;2023-04-01T00:34:33;14.80;82.40
49731;DHT22;35622;52.008;5.426;2023-04-01T00:36:59;14.80;82.30
49731;DHT22;35622;52.008;5.426;2023-04-01T00:39:29;14.70;82.50
49731;DHT22;35622;52.008;5.426;2023-04-01T00:41:54;14.80;82.40
49731;DHT22;35622;52.008;5.426;2023-04-01T00:44:24;14.70;82.40
49731;DHT22;35622;52.008;5.426;2023-04-01T00:46:51;14.70;82.50
49731;DHT22;35622;52.008;5.426;2023-04-01T00:49:20;14.80;82.20
49731;DHT22;35622;52.008;5.426;2023-04-01T00:51:49;14.80;82.20
49731;DHT22;35622;52.008;5.426;2023-04-01T00:54:16;14.80;81.90
49731;DHT22;35622;52.008;5.426;2023-04-01T00:57:08;14.70;82.10
49731;DHT22;35622;52.008;5.426;2023-04-01T00:59:40;14.70;82.20
49731;DHT22;35622;52.008;5.426;2023-04-01T01:02:10;14.70;82.10
49731;DHT22;35622;52.008;5.426;2023-04-01T01:04:36;14.70;81.50
49731;DHT22;35622;52.008;5.426;2023-04-01T01:07:22;14.70;81.80
49731;DHT22;35622;52.008;5.426;2023-04-01T01:10:18;14.70;81.80
49731;DHT22;35622;52.008;5.426;2023-04-01T01:13:08;14.60;81.70
49731;DHT22;35622;52.008;5.426;2023-04-01T01:15:47;14.60;81.90
49731;DHT22;35622;52.008;5.426;2023-04-01T01:18:35;14.60;82.00
49731;DHT22;35622;52.008;5.426;2023-04-01T01:26:40;14.60;81.80
49731;DHT22;35622;52.008;5.426;2023-04-01T01:37:17;14.40;82.20
49731;DHT22;35622;52.008;5.426;2023-04-01T01:39:51;14.40;82.20
49731;DHT22;35622;52.008;5.426;2023-04-01T01:42:19;14.50;82.40
49731;DHT22;35622;52.008;5.426;2023-04-01T01:44:47;14.40;82.10
49731;DHT22;35622;52.008;5.426;2023-04-01T01:47:14;14.40;82.10
49731;DHT22;35622;52.008;5.426;2023-04-01T01:49:41;14.40;82.30
49731;DHT22;35622;52.008;5.426;2023-04-01T01:52:08;14.40;82.20
49731;DHT22;35622;52.008;5.426;2023-04-01T01:54:34;14.40;82.40
49731;DHT22;35622;52.008;5.426;2023-04-01T01:57:05;14.40;82.30
49731;DHT22;35622;52.008;5.426;2023-04-01T01:59:33;14.40;82.00
49731;DHT22;35622;52.008;5.426;2023-04-01T02:02:00;14.40;82.10
49731;DHT22;35622;52.008;5.426;2023-04-01T02:04:37;14.40;82.10
49731;DHT22;35622;52.008;5.426;2023-04-01T02:07:08;14.30;82.10
49731;DHT22;35622;52.008;5.426;2023-04-01T02:09:36;14.30;82.10
49731;DHT22;35622;52.008;5.426;2023-04-01T02:12:08;14.20;82.20
49731;DHT22;35622;52.008;5.426;2023-04-01T02:14:45;14.20;82.30
49731;DHT22;35622;52.008;5.426;2023-04-01T02:17:17;14.30;82.30
49731;DHT22;35622;52.008;5.426;2023-04-01T02:19:50;14.20;82.30
49731;DHT22;35622;52.008;5.426;2023-04-01T02:22:29;14.20;82.50
49731;DHT22;35622;52.008;5.426;2023-04-01T02:25:10;14.20;82.60
49731;DHT22;35622;52.008;5.426;2023-04-01T02:27:36;14.20;82.70
49731;DHT22;35622;52.008;5.426;2023-04-01T02:30:03;14.20;82.80
49731;DHT22;35622;52.008;5.426;2023-04-01T02:32:29;14.20;82.70
49731;DHT22;35622;52.008;5.426;2023-04-01T02:34:56;14.20;82.60
49731;DHT22;35622;52.008;5.426;2023-04-01T02:37:22;14.20;82.70
49731;DHT22;35622;52.008;5.426;2023-04-01T02:39:48;14.20;82.70
49731;DHT22;35622;52.008;5.426;2023-04-01T02:42:14;14.20;82.70
49731;DHT22;35622;52.008;5.426;2023-04-01T02:44:39;14.10;82.90
49731;DHT22;35622;52.008;5.426;2023-04-01T02:47:05;14.10;82.90
49731;DHT22;35622;52.008;5.426;2023-04-01T02:49:31;14.10;82.70
49731;DHT22;35622;52.008;5.426;2023-04-01T02:51:56;14.10;82.60
49731;DHT22;35622;52.008;5.426;2023-04-01T02:54:22;14.00;82.80
49731;DHT22;35622;52.008;5.426;2023-04-01T02:56:47;14.10;82.70
49731;DHT22;35622;52.008;5.426;2023-04-01T02:59:13;14.00;83.00
49731;DHT22;35622;52.008;5.426;2023-04-01T03:01:39;14.00;83.00
49731;DHT22;35622;52.008;5.426;2023-04-01T03:04:04;14.10;82.90
49731;DHT22;35622;52.008;5.426;2023-04-01T03:06:30;14.00;83.00
49731;DHT22;35622;52.008;5.426;2023-04-01T03:08:56;14.00;82.80
49731;DHT22;35622;52.008;5.426;2023-04-01T03:11:21;14.00;83.30
49731;DHT22;35622;52.008;5.426;2023-04-01T03:13:47;14.10;82.90
49731;DHT22;35622;52.008;5.426;2023-04-01T03:16:14;14.10;83.00
49731;DHT22;35622;52.008;5.426;2023-04-01T03:18:40;14.20;82.40
49731;DHT22;35622;52.008;5.426;2023-04-01T03:21:17;14.10;82.60
49731;DHT22;35622;52.008;5.426;2023-04-01T03:23:43;14.10;82.90
49731;DHT22;35622;52.008;5.426;2023-04-01T03:26:09;14.00;83.00
49731;DHT22;35622;52.008;5.426;2023-04-01T03:28:34;14.10;83.00
49731;DHT22;35622;52.008;5.426;2023-04-01T03:31:00;14.10;82.70
49731;DHT22;35622;52.008;5.426;2023-04-01T03:33:26;14.10;82.80
49731;DHT22;35622;52.008;5.426;2023-04-01T03:35:51;14.10;83.00
49731;DHT22;35622;52.008;5.426;2023-04-01T03:38:17;14.00;83.00
49731;DHT22;35622;52.008;5.426;2023-04-01T03:40:43;14.00;83.30
49731;DHT22;35622;52.008;5.426;2023-04-01T03:43:09;14.00;83.30
49731;DHT22;35622;52.008;5.426;2023-04-01T03:45:35;14.00;83.20
49731;DHT22;35622;52.008;5.426;2023-04-01T03:48:01;14.00;83.50
49731;DHT22;35622;52.008;5.426;2023-04-01T03:50:26;14.00;83.00
49731;DHT22;35622;52.008;5.426;2023-04-01T03:52:52;14.00;83.30
49731;DHT22;35622;52.008;5.426;2023-04-01T03:55:18;14.00;83.20
49731;DHT22;35622;52.008;5.426;2023-04-01T03:57:43;14.00;83.20
49731;DHT22;35622;52.008;5.426;2023-04-01T04:00:09;14.00;83.20
49731;DHT22;35622;52.008;5.426;2023-04-01T04:02:35;14.00;83.40
49731;DHT22;35622;52.008;5.426;2023-04-01T04:05:01;14.00;83.40
49731;DHT22;35622;52.008;5.426;2023-04-01T04:07:26;14.00;83.70
49731;DHT22;35622;52.008;5.426;2023-04-01T04:09:52;14.00;83.60
49731;DHT22;35622;52.008;5.426;2023-04-01T04:12:17;14.10;83.90
49731;DHT22;35622;52.008;5.426;2023-04-01T04:14:43;14.10;83.70
49731;DHT22;35622;52.008;5.426;2023-04-01T04:17:12;14.10;83.70
49731;DHT22;35622;52.008;5.426;2023-04-01T04:19:41;14.10;83.60
49731;DHT22;35622;52.008;5.426;2023-04-01T04:22:07;14.10;83.30
49731;DHT22;35622;52.008;5.426;2023-04-01T04:24:36;14.10;83.60
49731;DHT22;35622;52.008;5.426;2023-04-01T04:27:02;14.20;83.70
49731;DHT22;35622;52.008;5.426;2023-04-01T04:29:28;14.20;83.60
49731;DHT22;35622;52.008;5.426;2023-04-01T04:31:54;14.20;84.40
49731;DHT22;35622;52.008;5.426;2023-04-01T04:34:19;14.30;83.60
49731;DHT22;35622;52.008;5.426;2023-04-01T04:36:46;14.30;83.30
49731;DHT22;35622;52.008;5.426;2023-04-01T04:39:12;14.30;83.30
49731;DHT22;35622;52.008;5.426;2023-04-01T04:41:38;14.40;83.50
49731;DHT22;35622;52.008;5.426;2023-04-01T04:44:03;14.40;83.40
49731;DHT22;35622;52.008;5.426;2023-04-01T04:46:29;14.40;83.20
49731;DHT22;35622;52.008;5.426;2023-04-01T04:48:55;14.40;82.90
49731;DHT22;35622;52.008;5.426;2023-04-01T04:51:22;14.50;82.90
49731;DHT22;35622;52.008;5.426;2023-04-01T04:53:48;14.40;83.00
49731;DHT22;35622;52.008;5.426;2023-04-01T04:56:21;14.50;83.10
49731;DHT22;35622;52.008;5.426;2023-04-01T04:58:47;14.50;83.00
49731;DHT22;35622;52.008;5.426;2023-04-01T05:01:14;14.60;83.00
49731;DHT22;35622;52.008;5.426;2023-04-01T05:03:41;14.60;82.60
49731;DHT22;35622;52.008;5.426;2023-04-01T05:06:08;14.50;82.80
49731;DHT22;35622;52.008;5.426;2023-04-01T05:08:35;14.50;83.00
49731;DHT22;35622;52.008;5.426;2023-04-01T05:11:01;14.60;83.00
49731;DHT22;35622;52.008;5.426;2023-04-01T05:13:27;14.60;82.60
49731;DHT22;35622;52.008;5.426;2023-04-01T05:15:53;14.50;82.70
49731;DHT22;35622;52.008;5.426;2023-04-01T05:18:18;14.50;83.00
49731;DHT22;35622;52.008;5.426;2023-04-01T05:20:49;14.40;84.10
49731;DHT22;35622;52.008;5.426;2023-04-01T05:23:15;14.40;83.50
49731;DHT22;35622;52.008;5.426;2023-04-01T05:25:41;14.40;83.60
49731;DHT22;35622;52.008;5.426;2023-04-01T05:28:07;14.40;83.20
49731;DHT22;35622;52.008;5.426;2023-04-01T05:30:32;14.40;83.50
49731;DHT22;35622;52.008;5.426;2023-04-01T05:32:58;14.40;83.40
49731;DHT22;35622;52.008;5.426;2023-04-01T05:35:24;14.50;83.40
49731;DHT22;35622;52.008;5.426;2023-04-01T05:37:49;14.40;83.60
49731;DHT22;35622;52.008;5.426;2023-04-01T05:40:15;14.40;83.90
49731;DHT22;35622;52.008;5.426;2023-04-01T05:42:40;14.50;83.50
49731;DHT22;35622;52.008;5.426;2023-04-01T05:45:07;14.40;83.90
49731;DHT22;35622;52.008;5.426;2023-04-01T05:47:32;14.40;84.20
49731;DHT22;35622;52.008;5.426;2023-04-01T05:49:58;14.50;84.30
49731;DHT22;35622;52.008;5.426;2023-04-01T05:52:24;14.50;84.30
49731;DHT22;35622;52.008;5.426;2023-04-01T05:54:50;14.60;83.90
49731;DHT22;35622;52.008;5.426;2023-04-01T05:57:16;14.50;83.90
49731;DHT22;35622;52.008;5.426;2023-04-01T05:59:42;14.50;84.00
49731;DHT22;35622;52.008;5.426;2023-04-01T06:02:08;14.60;84.10
49731;DHT22;35622;52.008;5.426;2023-04-01T06:04:38;14.60;84.20
49731;DHT22;35622;52.008;5.426;2023-04-01T06:07:12;14.60;84.10
49731;DHT22;35622;52.008;5.426;2023-04-01T06:09:38;14.60;84.00
49731;DHT22;35622;52.008;5.426;2023-04-01T06:14:37;14.60;84.60
49731;DHT22;35622;52.008;5.426;2023-04-01T06:17:13;14.60;84.70
49731;DHT22;35622;52.008;5.426;2023-04-01T06:29:03;14.80;83.90
49731;DHT22;35622;52.008;5.426;2023-04-01T06:39:54;14.90;83.60
49731;DHT22;35622;52.008;5.426;2023-04-01T06:47:58;15.00;83.30
49731;DHT22;35622;52.008;5.426;2023-04-01T06:56:14;15.10;84.10
49731;DHT22;35622;52.008;5.426;2023-04-01T06:58:48;15.10;83.40
49731;DHT22;35622;52.008;5.426;2023-04-01T07:01:22;15.20;83.20
49731;DHT22;35622;52.008;5.426;2023-04-01T07:04:11;15.30;83.10
49731;DHT22;35622;52.008;5.426;2023-04-01T07:07:01;15.30;83.00
49731;DHT22;35622;52.008;5.426;2023-04-01T07:09:37;15.30;82.50
49731;DHT22;35622;52.008;5.426;2023-04-01T07:14:56;15.40;82.80
49731;DHT22;35622;52.008;5.426;2023-04-01T07:17:28;15.60;82.10
49731;DHT22;35622;52.008;5.426;2023-04-01T07:20:23;15.60;81.10
49731;DHT22;35622;52.008;5.426;2023-04-01T07:22:54;15.50;81.00
49731;DHT22;35622;52.008;5.426;2023-04-01T07:25:25;15.50;81.40
49731;DHT22;35622;52.008;5.426;2023-04-01T07:28:03;15.60;79.80
49731;DHT22;35622;52.008;5.426;2023-04-01T07:30:46;15.50;80.80
49731;DHT22;35622;52.008;5.426;2023-04-01T07:35:57;15.70;80.50
49731;DHT22;35622;52.008;5.426;2023-04-01T07:41:08;15.90;80.10
49731;DHT22;35622;52.008;5.426;2023-04-01T07:44:06;15.80;80.00
49731;DHT22;35622;52.008;5.426;2023-04-01T07:47:10;15.70;80.40
49731;DHT22;35622;52.008;5.426;2023-04-01T07:50:44;15.70;80.50
49731;DHT22;35622;52.008;5.426;2023-04-01T08:07:21;16.10;79.70
49731;DHT22;35622;52.008;5.426;2023-04-01T08:18:35;16.20;78.10
49731;DHT22;35622;52.008;5.426;2023-04-01T08:21:04;16.10;77.80
49731;DHT22;35622;52.008;5.426;2023-04-01T08:23:48;16.10;77.60
49731;DHT22;35622;52.008;5.426;2023-04-01T08:26:32;16.10;77.60
49731;DHT22;35622;52.008;5.426;2023-04-01T08:31:46;16.00;78.80
49731;DHT22;35622;52.008;5.426;2023-04-01T08:34:19;16.10;79.30
49731;DHT22;35622;52.008;5.426;2023-04-01T08:37:07;16.10;78.70
49731;DHT22;35622;52.008;5.426;2023-04-01T08:39:50;16.20;78.80
49731;DHT22;35622;52.008;5.426;2023-04-01T08:42:47;16.20;79.20
49731;DHT22;35622;52.008;5.426;2023-04-01T08:45:48;16.40;78.70
49731;DHT22;35622;52.008;5.426;2023-04-01T08:48:40;16.40;78.30
49731;DHT22;35622;52.008;5.426;2023-04-01T08:56:41;16.60;78.30
49731;DHT22;35622;52.008;5.426;2023-04-01T09:02:41;16.70;78.40
49731;DHT22;35622;52.008;5.426;2023-04-01T09:05:44;16.70;76.80
49731;DHT22;35622;52.008;5.426;2023-04-01T09:21:43;16.90;77.40
49731;DHT22;35622;52.008;5.426;2023-04-01T09:32:34;16.90;76.40
49731;DHT22;35622;52.008;5.426;2023-04-01T09:35:48;16.90;76.50
49731;DHT22;35622;52.008;5.426;2023-04-01T09:38:43;17.00;75.60
49731;DHT22;35622;52.008;5.426;2023-04-01T09:41:07;16.90;75.60
49731;DHT22;35622;52.008;5.426;2023-04-01T09:43:54;16.80;75.90
49731;DHT22;35622;52.008;5.426;2023-04-01T09:52:26;16.90;76.20
49731;DHT22;35622;52.008;5.426;2023-04-01T10:09:32;17.70;75.80
49731;DHT22;35622;52.008;5.426;2023-04-01T10:15:22;17.70;74.10
49731;DHT22;35622;52.008;5.426;2023-04-01T10:35:14;19.00;73.40
49731;DHT22;35622;52.008;5.426;2023-04-01T10:41:00;21.00;66.70
49731;DHT22;35622;52.008;5.426;2023-04-01T10:50:03;22.90;57.60
49731;DHT22;35622;52.008;5.426;2023-04-01T10:55:48;23.10;56.90
49731;DHT22;35622;52.008;5.426;2023-04-01T11:14:49;21.50;55.50
49731;DHT22;35622;52.008;5.426;2023-04-01T11:20:22;21.30;57.30
49731;DHT22;35622;52.008;5.426;2023-04-01T11:23:07;21.10;57.00
49731;DHT22;35622;52.008;5.426;2023-04-01T11:26:28;21.00;57.70
49731;DHT22;35622;52.008;5.426;2023-04-01T11:29:25;21.00;58.70
49731;DHT22;35622;52.008;5.426;2023-04-01T11:31:50;21.10;59.00
49731;DHT22;35622;52.008;5.426;2023-04-01T11:37:27;21.10;58.80
49731;DHT22;35622;52.008;5.426;2023-04-01T11:40:17;21.00;58.90
49731;DHT22;35622;52.008;5.426;2023-04-01T11:42:57;20.70;59.10
49731;DHT22;35622;52.008;5.426;2023-04-01T11:53:37;19.60;60.60
49731;DHT22;35622;52.008;5.426;2023-04-01T11:59:08;19.50;62.10
49731;DHT22;35622;52.008;5.426;2023-04-01T12:07:55;19.60;63.20
49731;DHT22;35622;52.008;5.426;2023-04-01T12:10:39;19.60;62.70
49731;DHT22;35622;52.008;5.426;2023-04-01T12:13:18;19.60;62.60
49731;DHT22;35622;52.008;5.426;2023-04-01T12:21:27;19.20;63.20
49731;DHT22;35622;52.008;5.426;2023-04-01T12:27:12;18.90;62.90
49731;DHT22;35622;52.008;5.426;2023-04-01T12:39:26;17.90;67.00
49731;DHT22;35622;52.008;5.426;2023-04-01T12:49:53;18.00;68.20
49731;DHT22;35622;52.008;5.426;2023-04-01T12:52:59;18.10;68.30
49731;DHT22;35622;52.008;5.426;2023-04-01T12:55:48;18.10;68.50
49731;DHT22;35622;52.008;5.426;2023-04-01T12:58:40;18.20;68.60
49731;DHT22;35622;52.008;5.426;2023-04-01T13:07:05;18.60;68.40
49731;DHT22;35622;52.008;5.426;2023-04-01T13:12:34;18.70;68.00
49731;DHT22;35622;52.008;5.426;2023-04-01T13:18:17;18.90;67.40
49731;DHT22;35622;52.008;5.426;2023-04-01T13:21:15;19.10;67.50
49731;DHT22;35622;52.008;5.426;2023-04-01T13:24:07;19.50;67.30
49731;DHT22;35622;52.008;5.426;2023-04-01T13:29:31;20.70;65.60
49731;DHT22;35622;52.008;5.426;2023-04-01T13:32:12;21.00;59.80
49731;DHT22;35622;52.008;5.426;2023-04-01T13:34:46;20.90;60.30
49731;DHT22;35622;52.008;5.426;2023-04-01T13:43:02;20.70;60.10
49731;DHT22;35622;52.008;5.426;2023-04-01T13:45:42;20.50;59.60
49731;DHT22;35622;52.008;5.426;2023-04-01T13:48:27;20.20;59.50
49731;DHT22;35622;52.008;5.426;2023-04-01T13:54:29;19.80;60.20
49731;DHT22;35622;52.008;5.426;2023-04-01T13:57:16;19.50;61.30
49731;DHT22;35622;52.008;5.426;2023-04-01T14:02:36;19.10;63.40
49731;DHT22;35622;52.008;5.426;2023-04-01T14:05:36;19.20;63.60
49731;DHT22;35622;52.008;5.426;2023-04-01T14:13:43;19.70;63.00
49731;DHT22;35622;52.008;5.426;2023-04-01T14:18:57;19.50;62.60
49731;DHT22;35622;52.008;5.426;2023-04-01T14:24:46;19.00;62.90
49731;DHT22;35622;52.008;5.426;2023-04-01T14:38:02;17.60;68.00
49731;DHT22;35622;52.008;5.426;2023-04-01T14:43:33;17.30;69.10
49731;DHT22;35622;52.008;5.426;2023-04-01T14:46:14;17.10;70.20
49731;DHT22;35622;52.008;5.426;2023-04-01T14:49:04;17.00;70.90
49731;DHT22;35622;52.008;5.426;2023-04-01T14:51:39;16.90;71.70
49731;DHT22;35622;52.008;5.426;2023-04-01T14:54:32;16.80;72.10
49731;DHT22;35622;52.008;5.426;2023-04-01T14:57:13;16.60;72.40
49731;DHT22;35622;52.008;5.426;2023-04-01T14:59:45;16.60;73.10
49731;DHT22;35622;52.008;5.426;2023-04-01T15:02:32;16.60;73.30
49731;DHT22;35622;52.008;5.426;2023-04-01T15:10:45;16.40;74.00
49731;DHT22;35622;52.008;5.426;2023-04-01T15:13:22;16.20;74.30
49731;DHT22;35622;52.008;5.426;2023-04-01T15:16:11;16.20;74.70
49731;DHT22;35622;52.008;5.426;2023-04-01T15:26:40;16.20;75.20
49731;DHT22;35622;52.008;5.426;2023-04-01T15:32:25;16.40;75.60
49731;DHT22;35622;52.008;5.426;2023-04-01T15:34:57;16.40;75.20
49731;DHT22;35622;52.008;5.426;2023-04-01T15:40:15;16.60;74.60
49731;DHT22;35622;52.008;5.426;2023-04-01T15:43:07;16.60;74.90
49731;DHT22;35622;52.008;5.426;2023-04-01T15:48:13;16.90;74.70
49731;DHT22;35622;52.008;5.426;2023-04-01T16:01:35;17.20;73.80
49731;DHT22;35622;52.008;5.426;2023-04-01T16:04:32;17.20;72.80
49731;DHT22;35622;52.008;5.426;2023-04-01T16:16:00;16.60;72.60
49731;DHT22;35622;52.008;5.426;2023-04-01T16:18:45;16.50;72.80
49731;DHT22;35622;52.008;5.426;2023-04-01T16:21:36;16.50;72.90
49731;DHT22;35622;52.008;5.426;2023-04-01T16:24:17;16.40;73.30
49731;DHT22;35622;52.008;5.426;2023-04-01T16:26:56;16.40;73.60
49731;DHT22;35622;52.008;5.426;2023-04-01T16:35:12;16.40;73.10
49731;DHT22;35622;52.008;5.426;2023-04-01T16:38:50;16.30;73.20
49731;DHT22;35622;52.008;5.426;2023-04-01T16:43:25;16.10;73.70
49731;DHT22;35622;52.008;5.426;2023-04-01T16:46:53;16.00;74.20
49731;DHT22;35622;52.008;5.426;2023-04-01T16:49:04;16.00;74.30
49731;DHT22;35622;52.008;5.426;2023-04-01T16:54:27;15.80;74.30
49731;DHT22;35622;52.008;5.426;2023-04-01T16:59:38;15.60;75.00
49731;DHT22;35622;52.008;5.426;2023-04-01T17:02:13;15.60;75.20
49731;DHT22;35622;52.008;5.426;2023-04-01T17:08:07;15.40;75.20
49731;DHT22;35622;52.008;5.426;2023-04-01T17:13:46;15.30;76.10
49731;DHT22;35622;52.008;5.426;2023-04-01T17:16:40;15.30;76.10
49731;DHT22;35622;52.008;5.426;2023-04-01T17:22:11;15.10;76.20
49731;DHT22;35622;52.008;5.426;2023-04-01T17:24:53;15.00;76.10
49731;DHT22;35622;52.008;5.426;2023-04-01T17:27:43;15.00;76.30
49731;DHT22;35622;52.008;5.426;2023-04-01T17:30:32;15.00;75.80
49731;DHT22;35622;52.008;5.426;2023-04-01T17:33:17;15.00;76.30
49731;DHT22;35622;52.008;5.426;2023-04-01T17:42:21;14.90;75.90
49731;DHT22;35622;52.008;5.426;2023-04-01T17:53:28;14.80;76.30
49731;DHT22;35622;52.008;5.426;2023-04-01T18:04:15;14.60;76.60
49731;DHT22;35622;52.008;5.426;2023-04-01T18:23:50;14.40;77.00
49731;DHT22;35622;52.008;5.426;2023-04-01T18:26:35;14.30;77.00
49731;DHT22;35622;52.008;5.426;2023-04-01T18:31:45;14.40;76.70
49731;DHT22;35622;52.008;5.426;2023-04-01T18:34:32;14.30;76.60
49731;DHT22;35622;52.008;5.426;2023-04-01T18:37:25;14.20;77.20
49731;DHT22;35622;52.008;5.426;2023-04-01T18:40:00;14.20;77.40
49731;DHT22;35622;52.008;5.426;2023-04-01T18:42:38;14.30;76.90
49731;DHT22;35622;52.008;5.426;2023-04-01T18:48:51;14.20;76.50
49731;DHT22;35622;52.008;5.426;2023-04-01T18:50:57;14.20;76.80
49731;DHT22;35622;52.008;5.426;2023-04-01T18:53:30;14.20;76.80
49731;DHT22;35622;52.008;5.426;2023-04-01T18:56:24;14.20;76.80
49731;DHT22;35622;52.008;5.426;2023-04-01T19:01:51;14.20;77.00
49731;DHT22;35622;52.008;5.426;2023-04-01T19:04:38;14.10;77.00
49731;DHT22;35622;52.008;5.426;2023-04-01T19:09:52;14.10;76.80
49731;DHT22;35622;52.008;5.426;2023-04-01T19:12:47;14.10;76.30
49731;DHT22;35622;52.008;5.426;2023-04-01T19:21:04;13.90;77.10
49731;DHT22;35622;52.008;5.426;2023-04-01T19:26:39;13.90;76.30
49731;DHT22;35622;52.008;5.426;2023-04-01T19:29:28;13.90;76.30
49731;DHT22;35622;52.008;5.426;2023-04-01T19:35:20;13.80;76.70
49731;DHT22;35622;52.008;5.426;2023-04-01T19:37:51;13.70;76.90
49731;DHT22;35622;52.008;5.426;2023-04-01T19:43:14;13.80;77.00
49731;DHT22;35622;52.008;5.426;2023-04-01T19:51:56;13.80;76.40
49731;DHT22;35622;52.008;5.426;2023-04-01T19:54:50;13.70;76.60
49731;DHT22;35622;52.008;5.426;2023-04-01T20:00:04;13.80;76.70
49731;DHT22;35622;52.008;5.426;2023-04-01T20:08:54;13.70;76.70
49731;DHT22;35622;52.008;5.426;2023-04-01T20:19:14;13.30;77.00
49731;DHT22;35622;52.008;5.426;2023-04-01T20:21:47;13.30;77.40
49731;DHT22;35622;52.008;5.426;2023-04-01T20:27:10;13.00;78.50
49731;DHT22;35622;52.008;5.426;2023-04-01T20:30:22;12.90;78.90
49731;DHT22;35622;52.008;5.426;2023-04-01T20:33:28;12.90;79.00
49731;DHT22;35622;52.008;5.426;2023-04-01T20:36:26;13.00;79.20
49731;DHT22;35622;52.008;5.426;2023-04-01T20:44:43;12.90;79.30
49731;DHT22;35622;52.008;5.426;2023-04-01T20:47:23;12.90;79.40
49731;DHT22;35622;52.008;5.426;2023-04-01T20:50:27;13.00;79.30
49731;DHT22;35622;52.008;5.426;2023-04-01T20:59:07;12.80;79.60
49731;DHT22;35622;52.008;5.426;2023-04-01T21:02:04;12.90;79.60
49731;DHT22;35622;52.008;5.426;2023-04-01T21:05:09;12.90;78.30
49731;DHT22;35622;52.008;5.426;2023-04-01T21:07:46;12.80;78.50
49731;DHT22;35622;52.008;5.426;2023-04-01T21:38:34;12.50;77.20
49731;DHT22;35622;52.008;5.426;2023-04-01T21:49:14;12.40;77.60
49731;DHT22;35622;52.008;5.426;2023-04-01T22:00:08;12.50;77.30
49731;DHT22;35622;52.008;5.426;2023-04-01T22:02:59;12.50;76.50
49731;DHT22;35622;52.008;5.426;2023-04-01T22:06:03;12.40;76.60
49731;DHT22;35622;52.008;5.426;2023-04-01T22:16:58;12.20;77.50
49731;DHT22;35622;52.008;5.426;2023-04-01T22:19:53;12.30;77.10
49731;DHT22;35622;52.008;5.426;2023-04-01T22:27:55;12.20;76.60
49731;DHT22;35622;52.008;5.426;2023-04-01T22:30:27;12.30;75.60
49731;DHT22;35622;52.008;5.426;2023-04-01T22:33:11;12.10;76.10
49731;DHT22;35622;52.008;5.426;2023-04-01T22:41:26;12.00;75.80
49731;DHT22;35622;52.008;5.426;2023-04-01T22:43:55;11.90;76.20
49731;DHT22;35622;52.008;5.426;2023-04-01T22:50:14;12.00;76.60
49731;DHT22;35622;52.008;5.426;2023-04-01T22:52:31;12.00;76.60
49731;DHT22;35622;52.008;5.426;2023-04-01T22:55:15;12.00;76.50
49731;DHT22;35622;52.008;5.426;2023-04-01T22:57:58;12.10;76.30
49731;DHT22;35622;52.008;5.426;2023-04-01T23:00:48;12.00;76.00
49731;DHT22;35622;52.008;5.426;2023-04-01T23:05:51;12.00;75.30
49731;DHT22;35622;52.008;5.426;2023-04-01T23:08:40;11.90;75.50
49731;DHT22;35622;52.008;5.426;2023-04-01T23:11:11;11.80;75.90
49731;DHT22;35622;52.008;5.426;2023-04-01T23:13:43;11.70;76.00
49731;DHT22;35622;52.008;5.426;2023-04-01T23:16:10;11.70;75.80
49731;DHT22;35622;52.008;5.426;2023-04-01T23:18:52;11.70;76.10
49731;DHT22;35622;52.008;5.426;2023-04-01T23:21:38;11.60;76.70
49731;DHT22;35622;52.008;5.426;2023-04-01T23:24:28;11.70;76.70
49731;DHT22;35622;52.008;5.426;2023-04-01T23:27:21;11.60;76.20
49731;DHT22;35622;52.008;5.426;2023-04-01T23:29:47;11.60;76.30
49731;DHT22;35622;52.008;5.426;2023-04-01T23:32:22;11.60;76.20
49731;DHT22;35622;52.008;5.426;2023-04-01T23:34:52;11.70;75.90
49731;DHT22;35622;52.008;5.426;2023-04-01T23:37:20;11.70;76.10
49731;DHT22;35622;52.008;5.426;2023-04-01T23:39:50;11.80;75.70
49731;DHT22;35622;52.008;5.426;2023-04-01T23:42:23;11.70;75.30
49731;DHT22;35622;52.008;5.426;2023-04-01T23:44:52;11.70;75.30
49731;DHT22;35622;52.008;5.426;2023-04-01T23:47:22;11.70;75.20
49731;DHT22;35622;52.008;5.426;2023-04-01T23:49:51;11.70;75.30
49731;DHT22;35622;52.008;5.426;2023-04-01T23:52:26;11.80;75.00
49731;DHT22;35622;52.008;5.426;2023-04-01T23:54:58;11.80;75.00
49731;DHT22;35622;52.008;5.426;2023-04-01T23:57:33;11.80;74.00
